createdAt,value
2023-05-10T00:02:22.797Z,9.74
2023-05-10T00:04:50.252Z,9.70
2023-05-10T00:07:18.581Z,9.72
2023-05-10T00:09:45.891Z,9.67
2023-05-10T00:12:13.455Z,9.69
2023-05-10T00:14:41.095Z,9.72
2023-05-10T00:17:08.512Z,9.70
2023-05-10T00:19:35.899Z,9.78
2023-05-10T00:22:03.327Z,9.73
2023-05-10T00:24:31.163Z,9.71
2023-05-10T00:26:58.475Z,9.79
2023-05-10T00:29:25.814Z,9.78
2023-05-10T00:31:53.191Z,9.92
2023-05-10T00:34:20.634Z,9.84
2023-05-10T00:36:48.047Z,9.82
2023-05-10T00:39:15.601Z,9.77
2023-05-10T00:41:42.964Z,9.78
2023-05-10T00:44:10.336Z,9.83
2023-05-10T00:46:37.836Z,9.85
2023-05-10T00:49:05.535Z,9.95
2023-05-10T00:51:33.364Z,9.92
2023-05-10T00:54:00.874Z,9.94
2023-05-10T00:56:30.646Z,9.98
2023-05-10T00:58:58.280Z,9.95
2023-05-10T01:01:26.247Z,9.84
2023-05-10T01:03:55.504Z,9.97
2023-05-10T01:06:23.166Z,10.01
2023-05-10T01:08:51.306Z,9.93
2023-05-10T01:11:18.949Z,9.95
2023-05-10T01:13:52.018Z,9.96
2023-05-10T01:16:19.489Z,10.01
2023-05-10T01:18:47.023Z,9.78
2023-05-10T01:21:28.466Z,9.76
2023-05-10T01:24:10.685Z,9.70
2023-05-10T01:26:55.155Z,9.72
2023-05-10T01:29:31.503Z,9.75
2023-05-10T01:32:07.951Z,9.64
2023-05-10T01:34:53.331Z,9.64
2023-05-10T01:37:34.482Z,9.65
2023-05-10T01:40:14.603Z,9.70
2023-05-10T01:42:51.022Z,9.67
2023-05-10T01:45:29.474Z,9.57
2023-05-10T01:48:07.779Z,9.67
2023-05-10T01:50:37.641Z,9.61
2023-05-10T01:53:08.983Z,9.59
2023-05-10T01:55:47.588Z,9.47
2023-05-10T01:58:21.272Z,9.37
2023-05-10T02:00:50.834Z,9.51
2023-05-10T02:03:22.234Z,9.28
2023-05-10T02:05:51.716Z,9.22
2023-05-10T02:08:20.408Z,9.20
2023-05-10T02:10:50.361Z,9.27
2023-05-10T02:13:19.198Z,9.03
2023-05-10T02:15:50.691Z,9.10
2023-05-10T02:18:19.115Z,9.04
2023-05-10T02:20:47.905Z,9.03
2023-05-10T02:23:18.736Z,9.05
2023-05-10T02:25:47.101Z,9.07
2023-05-10T02:28:16.561Z,9.08
2023-05-10T02:30:44.376Z,9.17
2023-05-10T02:33:12.952Z,9.09
2023-05-10T02:35:41.188Z,9.18
2023-05-10T02:38:09.749Z,9.26
2023-05-10T02:40:38.189Z,9.16
2023-05-10T02:43:07.992Z,9.14
2023-05-10T02:45:39.919Z,9.22
2023-05-10T02:48:07.812Z,9.28
2023-05-10T02:50:38.346Z,9.42
2023-05-10T02:53:12.692Z,9.49
2023-05-10T02:55:43.209Z,9.47
2023-05-10T02:58:11.209Z,9.51
2023-05-10T03:00:38.764Z,9.53
2023-05-10T03:03:06.301Z,9.59
2023-05-10T03:05:34.271Z,9.65
2023-05-10T03:08:05.154Z,9.71
2023-05-10T03:10:34.930Z,9.69
2023-05-10T03:13:22.957Z,9.74
2023-05-10T03:15:59.139Z,9.92
2023-05-10T03:18:58.845Z,9.98
2023-05-10T03:21:30.936Z,10.05
2023-05-10T03:24:08.035Z,10.05
2023-05-10T03:26:36.952Z,10.10
2023-05-10T03:29:06.517Z,10.19
2023-05-10T03:31:34.263Z,10.14
2023-05-10T03:34:02.339Z,10.11
2023-05-10T03:36:29.879Z,10.15
2023-05-10T03:38:57.421Z,10.23
2023-05-10T03:41:26.200Z,10.20
2023-05-10T03:43:53.503Z,10.43
2023-05-10T03:46:20.907Z,10.35
2023-05-10T03:48:48.348Z,10.51
2023-05-10T03:51:15.812Z,10.45
2023-05-10T03:53:43.134Z,10.57
2023-05-10T03:56:10.491Z,10.70
2023-05-10T03:58:37.968Z,10.72
2023-05-10T04:01:05.497Z,10.71
2023-05-10T04:03:33.811Z,10.85
2023-05-10T04:06:02.592Z,10.76
2023-05-10T04:08:30.700Z,10.89
2023-05-10T04:11:12.600Z,10.85
2023-05-10T04:13:39.980Z,10.84
2023-05-10T04:16:07.502Z,10.92
2023-05-10T04:18:34.987Z,10.97
2023-05-10T04:21:02.385Z,11.02
2023-05-10T04:23:30.105Z,11.02
2023-05-10T04:26:02.225Z,11.10
2023-05-10T04:28:29.992Z,11.15
2023-05-10T04:31:05.097Z,11.13
2023-05-10T04:33:34.288Z,11.19
2023-05-10T04:36:01.897Z,11.10
2023-05-10T04:38:30.305Z,11.24
2023-05-10T04:41:11.057Z,11.36
2023-05-10T04:43:39.338Z,11.43
2023-05-10T04:46:08.373Z,11.45
2023-05-10T04:48:36.329Z,11.58
2023-05-10T04:51:05.158Z,11.80
2023-05-10T04:53:33.198Z,11.87
2023-05-10T04:56:00.552Z,11.75
2023-05-10T04:58:27.897Z,11.80
2023-05-10T05:00:55.309Z,11.68
2023-05-10T05:03:23.376Z,11.67
2023-05-10T05:05:50.836Z,11.83
2023-05-10T05:08:18.412Z,11.85
2023-05-10T05:10:45.893Z,12.01
2023-05-10T05:13:13.828Z,11.98
2023-05-10T05:15:41.225Z,12.23
2023-05-10T05:18:08.990Z,12.35
2023-05-10T05:20:36.502Z,12.44
2023-05-10T05:23:03.965Z,12.43
2023-05-10T05:25:31.954Z,12.54
2023-05-10T05:27:59.334Z,12.56
2023-05-10T05:30:26.747Z,12.51
2023-05-10T05:32:54.365Z,12.56
2023-05-10T05:35:21.865Z,12.50
2023-05-10T05:37:49.228Z,12.66
2023-05-10T05:40:17.207Z,12.74
2023-05-10T05:42:44.731Z,12.70
2023-05-10T05:45:14.471Z,12.64
2023-05-10T05:47:42.363Z,12.65
2023-05-10T05:50:10.410Z,12.42
2023-05-10T05:52:38.169Z,12.52
2023-05-10T05:55:05.886Z,12.77
2023-05-10T05:57:33.466Z,13.01
2023-05-10T06:00:00.860Z,13.11
2023-05-10T06:02:28.275Z,13.53
2023-05-10T06:04:55.745Z,13.59
2023-05-10T06:07:23.074Z,13.66
2023-05-10T06:09:50.510Z,13.73
2023-05-10T06:12:18.133Z,13.45
2023-05-10T06:14:45.504Z,13.84
2023-05-10T06:17:12.908Z,13.86
2023-05-10T06:19:40.357Z,13.62
2023-05-10T06:22:07.913Z,13.79
2023-05-10T06:24:35.362Z,13.94
2023-05-10T06:27:03.219Z,13.89
2023-05-10T06:29:31.300Z,13.98
2023-05-10T06:31:58.860Z,13.64
2023-05-10T06:34:26.241Z,13.36
2023-05-10T06:36:53.975Z,13.55
2023-05-10T06:39:21.377Z,13.45
2023-05-10T06:41:48.833Z,13.42
2023-05-10T06:44:16.644Z,13.57
2023-05-10T06:46:44.170Z,13.61
2023-05-10T06:49:11.556Z,13.63
2023-05-10T06:51:38.966Z,13.29
2023-05-10T06:54:06.364Z,13.42
2023-05-10T06:56:33.827Z,13.57
2023-05-10T06:59:01.274Z,13.41
2023-05-10T07:01:28.736Z,13.64
2023-05-10T07:03:56.530Z,13.62
2023-05-10T07:06:33.015Z,13.54
2023-05-10T07:09:01.672Z,13.45
2023-05-10T07:11:29.237Z,13.57
2023-05-10T07:13:58.193Z,13.57
2023-05-10T07:16:25.657Z,13.75
2023-05-10T07:18:54.686Z,14.11
2023-05-10T07:21:25.066Z,14.30
2023-05-10T07:23:52.715Z,14.07
2023-05-10T07:26:20.506Z,13.98
2023-05-10T07:28:48.070Z,13.91
2023-05-10T07:31:15.588Z,13.97
2023-05-10T07:33:42.948Z,13.79
2023-05-10T07:36:10.359Z,13.89
2023-05-10T07:38:40.237Z,13.96
2023-05-10T07:41:08.297Z,14.10
2023-05-10T07:43:36.103Z,14.11
2023-05-10T07:46:03.780Z,14.15
2023-05-10T07:48:32.406Z,14.09
2023-05-10T07:50:59.849Z,14.17
2023-05-10T07:53:28.311Z,14.15
2023-05-10T07:55:59.246Z,13.95
2023-05-10T07:58:26.838Z,14.07
2023-05-10T08:00:54.263Z,14.30
2023-05-10T08:03:22.096Z,14.27
2023-05-10T08:05:49.633Z,14.40
2023-05-10T08:08:16.967Z,14.01
2023-05-10T08:10:44.965Z,13.96
2023-05-10T08:13:12.375Z,13.96
2023-05-10T08:15:39.889Z,13.84
2023-05-10T08:18:07.502Z,13.83
2023-05-10T08:20:34.956Z,13.63
2023-05-10T08:23:02.373Z,13.53
2023-05-10T08:25:29.880Z,13.42
2023-05-10T08:27:57.362Z,13.19
2023-05-10T08:30:24.990Z,12.99
2023-05-10T08:32:52.523Z,13.09
2023-05-10T08:35:19.998Z,12.87
2023-05-10T08:37:47.541Z,13.20
2023-05-10T08:40:16.506Z,13.33
2023-05-10T08:42:52.473Z,13.48
2023-05-10T08:45:21.334Z,13.58
2023-05-10T08:47:49.181Z,14.02
2023-05-10T08:50:21.222Z,14.55
2023-05-10T08:52:52.184Z,14.68
2023-05-10T08:55:19.896Z,14.89
2023-05-10T08:57:48.123Z,14.87
2023-05-10T09:00:16.454Z,14.95
2023-05-10T09:02:45.289Z,14.93
2023-05-10T09:05:13.702Z,15.70
2023-05-10T09:07:41.581Z,16.06
2023-05-10T09:10:10.533Z,16.36
2023-05-10T09:12:38.529Z,16.35
2023-05-10T09:15:08.126Z,16.19
2023-05-10T09:17:35.986Z,16.07
2023-05-10T09:20:08.006Z,15.70
2023-05-10T09:22:36.087Z,15.56
2023-05-10T09:25:12.130Z,15.35
2023-05-10T09:27:41.273Z,15.02
2023-05-10T09:30:09.795Z,14.93
2023-05-10T09:32:42.895Z,14.60
2023-05-10T09:35:13.486Z,14.35
2023-05-10T09:37:42.643Z,14.28
2023-05-10T09:40:15.432Z,14.39
2023-05-10T09:42:51.620Z,14.47
2023-05-10T09:45:19.395Z,14.38
2023-05-10T09:47:47.177Z,14.67
2023-05-10T09:50:14.684Z,14.90
2023-05-10T09:52:54.985Z,15.32
2023-05-10T09:55:24.555Z,15.91
2023-05-10T09:58:01.162Z,16.63
2023-05-10T10:00:29.410Z,16.80
2023-05-10T10:02:58.922Z,16.76
2023-05-10T10:05:30.752Z,17.44
2023-05-10T10:07:59.303Z,17.38
2023-05-10T10:10:27.821Z,17.41
2023-05-10T10:12:56.482Z,16.79
2023-05-10T10:15:25.071Z,17.01
2023-05-10T10:17:53.750Z,17.07
2023-05-10T10:20:23.609Z,16.96
2023-05-10T10:22:51.315Z,16.72
2023-05-10T10:25:22.861Z,16.57
2023-05-10T10:27:53.279Z,16.37
2023-05-10T10:30:27.236Z,16.32
2023-05-10T10:33:13.541Z,16.24
2023-05-10T10:35:48.149Z,16.11
2023-05-10T10:38:15.457Z,16.13
2023-05-10T10:40:43.175Z,16.42
2023-05-10T10:43:29.824Z,16.26
2023-05-10T10:46:16.526Z,16.29
2023-05-10T10:49:09.051Z,16.50
2023-05-10T10:51:40.241Z,16.73
2023-05-10T10:54:12.619Z,16.76
2023-05-10T10:56:39.968Z,16.87
2023-05-10T10:59:09.487Z,17.07
2023-05-10T11:01:37.362Z,17.16
2023-05-10T11:04:04.737Z,17.03
2023-05-10T11:06:37.166Z,17.25
2023-05-10T11:09:12.896Z,17.43
2023-05-10T11:11:56.163Z,17.88
2023-05-10T11:14:24.019Z,17.96
2023-05-10T11:16:51.638Z,17.83
2023-05-10T11:19:20.237Z,17.95
2023-05-10T11:22:14.752Z,18.36
2023-05-10T11:24:57.775Z,18.09
2023-05-10T11:27:25.427Z,18.55
2023-05-10T11:29:53.225Z,18.17
2023-05-10T11:32:20.912Z,18.49
2023-05-10T11:34:51.792Z,19.10
2023-05-10T11:37:19.381Z,19.38
2023-05-10T11:39:48.715Z,19.43
2023-05-10T11:42:16.143Z,19.02
2023-05-10T11:44:46.846Z,19.06
2023-05-10T11:47:14.292Z,18.75
2023-05-10T11:49:45.396Z,18.17
2023-05-10T11:52:12.917Z,17.94
2023-05-10T11:54:54.121Z,18.10
2023-05-10T11:57:26.812Z,18.24
2023-05-10T11:59:56.093Z,18.17
2023-05-10T12:02:23.831Z,18.34
2023-05-10T12:04:52.063Z,18.19
2023-05-10T12:07:19.502Z,18.49
2023-05-10T12:10:16.500Z,18.97
2023-05-10T12:12:51.203Z,19.53
2023-05-10T12:15:25.846Z,19.67
2023-05-10T12:17:53.324Z,19.77
2023-05-10T12:20:29.057Z,19.75
2023-05-10T12:23:00.313Z,19.48
2023-05-10T12:25:32.463Z,18.90
2023-05-10T12:28:03.723Z,18.10
2023-05-10T12:30:33.841Z,17.93
2023-05-10T12:33:09.645Z,17.33
2023-05-10T12:35:47.447Z,17.10
2023-05-10T12:38:39.241Z,17.04
2023-05-10T12:41:09.668Z,16.60
2023-05-10T12:43:38.698Z,16.64
2023-05-10T12:46:18.858Z,16.16
2023-05-10T12:48:48.476Z,16.14
2023-05-10T12:51:18.475Z,16.25
2023-05-10T12:53:49.355Z,16.10
2023-05-10T12:56:16.951Z,16.21
2023-05-10T12:58:49.185Z,16.74
2023-05-10T13:01:16.870Z,16.77
2023-05-10T13:03:44.662Z,16.67
2023-05-10T13:06:11.981Z,16.95
2023-05-10T13:08:39.626Z,16.86
2023-05-10T13:11:07.414Z,16.91
2023-05-10T13:13:34.810Z,16.70
2023-05-10T13:16:02.212Z,16.84
2023-05-10T13:18:29.694Z,16.85
2023-05-10T13:20:57.187Z,16.80
2023-05-10T13:23:24.566Z,16.62
2023-05-10T13:25:51.947Z,16.86
2023-05-10T13:28:19.475Z,17.11
2023-05-10T13:30:46.915Z,17.56
2023-05-10T13:33:14.300Z,17.79
2023-05-10T13:35:41.630Z,17.59
2023-05-10T13:38:09.242Z,17.48
2023-05-10T13:40:37.071Z,17.73
2023-05-10T13:43:04.488Z,17.54
2023-05-10T13:45:32.032Z,17.58
2023-05-10T13:47:59.466Z,17.19
2023-05-10T13:50:26.954Z,17.28
2023-05-10T13:52:54.348Z,17.07
2023-05-10T13:55:22.031Z,16.96
2023-05-10T13:57:49.574Z,16.78
2023-05-10T14:00:17.596Z,16.59
2023-05-10T14:02:45.288Z,16.39
2023-05-10T14:05:14.012Z,16.22
2023-05-10T14:07:42.898Z,15.89
2023-05-10T14:10:10.741Z,16.04
2023-05-10T14:12:38.297Z,15.91
2023-05-10T14:15:07.930Z,15.83
2023-05-10T14:17:35.851Z,15.71
2023-05-10T14:20:04.852Z,15.99
2023-05-10T14:22:33.659Z,16.15
2023-05-10T14:25:01.644Z,16.13
2023-05-10T14:27:29.397Z,16.19
2023-05-10T14:29:56.777Z,16.09
2023-05-10T14:32:24.215Z,16.04
2023-05-10T14:34:51.549Z,16.35
2023-05-10T14:37:19.004Z,16.26
2023-05-10T14:39:46.421Z,16.06
2023-05-10T14:42:13.748Z,15.90
2023-05-10T14:44:42.253Z,15.83
2023-05-10T14:47:11.791Z,15.81
2023-05-10T14:49:39.477Z,15.55
2023-05-10T14:55:00.148Z,15.35
2023-05-10T14:57:30.581Z,15.65
2023-05-10T14:59:58.132Z,15.40
2023-05-10T15:02:26.547Z,15.61
2023-05-10T15:04:54.609Z,15.40
2023-05-10T15:07:22.386Z,15.26
2023-05-10T15:09:50.003Z,15.35
2023-05-10T15:12:17.424Z,15.27
2023-05-10T15:14:45.392Z,15.40
2023-05-10T15:17:12.906Z,15.35
2023-05-10T15:19:40.282Z,15.32
2023-05-10T15:22:07.616Z,15.28
2023-05-10T15:24:35.346Z,15.32
2023-05-10T15:27:02.818Z,15.16
2023-05-10T15:29:30.749Z,15.01
2023-05-10T15:31:58.073Z,15.06
2023-05-10T15:34:25.464Z,14.73
2023-05-10T15:36:52.973Z,14.78
2023-05-10T15:39:20.373Z,14.72
2023-05-10T15:41:48.282Z,14.83
2023-05-10T15:44:15.864Z,14.89
2023-05-10T15:46:43.222Z,14.71
2023-05-10T15:49:10.604Z,14.84
2023-05-10T15:51:37.976Z,14.70
2023-05-10T15:54:08.278Z,14.73
2023-05-10T15:56:36.231Z,14.72
2023-05-10T15:59:04.143Z,14.61
2023-05-10T16:01:32.650Z,14.69
2023-05-10T16:04:01.036Z,14.53
2023-05-10T16:06:28.395Z,14.52
2023-05-10T16:08:55.896Z,14.52
2023-05-10T16:11:23.422Z,14.58
2023-05-10T16:13:50.709Z,14.47
2023-05-10T16:16:18.215Z,14.39
2023-05-10T16:18:47.736Z,14.46
2023-05-10T16:21:15.122Z,14.33
2023-05-10T16:23:43.341Z,14.32
2023-05-10T16:26:10.692Z,14.28
2023-05-10T16:28:39.828Z,14.09
2023-05-10T16:31:07.289Z,14.15
2023-05-10T16:33:35.028Z,13.98
2023-05-10T16:36:02.733Z,14.01
2023-05-10T16:38:30.683Z,13.93
2023-05-10T16:40:58.150Z,13.92
2023-05-10T16:43:26.225Z,13.81
2023-05-10T16:45:53.781Z,13.79
2023-05-10T16:48:21.276Z,13.75
2023-05-10T16:50:48.788Z,13.50
2023-05-10T16:53:16.938Z,13.42
2023-05-10T16:55:45.085Z,13.27
2023-05-10T16:58:12.514Z,13.16
2023-05-10T17:00:40.145Z,13.02
2023-05-10T17:03:07.800Z,13.04
2023-05-10T17:05:35.617Z,12.92
2023-05-10T17:08:03.200Z,12.86
2023-05-10T17:10:30.772Z,12.67
2023-05-10T17:12:58.175Z,12.57
2023-05-10T17:15:25.568Z,12.60
2023-05-10T17:17:53.402Z,12.69
2023-05-10T17:20:21.008Z,12.55
2023-05-10T17:22:48.680Z,12.46
2023-05-10T17:25:16.376Z,12.40
2023-05-10T17:27:44.114Z,12.32
2023-05-10T17:30:11.977Z,12.31
2023-05-10T17:32:39.544Z,12.23
2023-05-10T17:35:07.385Z,12.11
2023-05-10T17:37:34.902Z,12.04
2023-05-10T17:40:03.944Z,12.01
2023-05-10T17:42:32.650Z,12.17
2023-05-10T17:45:00.017Z,12.03
2023-05-10T17:47:28.002Z,12.09
2023-05-10T17:49:55.440Z,11.90
2023-05-10T17:52:22.808Z,11.79
2023-05-10T17:54:50.190Z,11.68
2023-05-10T17:57:17.509Z,11.61
2023-05-10T17:59:44.992Z,11.51
2023-05-10T18:02:14.067Z,11.42
2023-05-10T18:04:41.500Z,11.42
2023-05-10T18:07:09.826Z,11.46
2023-05-10T18:09:37.209Z,11.40
2023-05-10T18:12:05.086Z,11.66
2023-05-10T18:14:40.611Z,11.53
2023-05-10T18:17:09.957Z,11.43
2023-05-10T18:19:37.660Z,11.26
2023-05-10T18:22:05.556Z,11.16
2023-05-10T18:24:39.699Z,11.16
2023-05-10T18:27:09.014Z,11.12
2023-05-10T18:29:37.208Z,11.04
2023-05-10T18:32:04.955Z,10.96
2023-05-10T18:34:32.376Z,10.92
2023-05-10T18:36:59.971Z,10.84
2023-05-10T18:39:27.468Z,10.96
2023-05-10T18:41:54.931Z,10.91
2023-05-10T18:44:26.007Z,10.81
2023-05-10T18:46:54.352Z,10.72
2023-05-10T18:49:21.772Z,10.83
2023-05-10T18:51:49.166Z,10.83
2023-05-10T18:54:16.916Z,10.77
2023-05-10T18:56:45.368Z,10.71
2023-05-10T18:59:13.161Z,10.67
2023-05-10T19:01:41.474Z,10.58
2023-05-10T19:04:09.155Z,10.68
2023-05-10T19:06:36.655Z,10.61
2023-05-10T19:09:04.385Z,10.68
2023-05-10T19:11:34.107Z,10.69
2023-05-10T19:14:02.463Z,10.67
2023-05-10T19:16:30.680Z,10.55
2023-05-10T19:18:58.332Z,10.43
2023-05-10T19:21:26.119Z,10.40
2023-05-10T19:23:53.777Z,10.40
2023-05-10T19:26:23.379Z,10.43
2023-05-10T19:28:52.158Z,10.48
2023-05-10T19:31:20.609Z,10.39
2023-05-10T19:33:47.924Z,10.38
2023-05-10T19:36:15.559Z,10.41
2023-05-10T19:38:43.059Z,10.37
2023-05-10T19:41:11.458Z,10.33
2023-05-10T19:43:39.905Z,10.31
2023-05-10T19:46:09.053Z,10.28
2023-05-10T19:48:36.617Z,10.27
2023-05-10T19:51:07.592Z,10.24
2023-05-10T19:53:36.936Z,10.21
2023-05-10T19:56:06.595Z,10.22
2023-05-10T19:58:34.534Z,10.17
2023-05-10T20:01:02.726Z,10.23
2023-05-10T20:03:30.734Z,10.28
2023-05-10T20:05:58.207Z,10.12
2023-05-10T20:08:25.847Z,10.21
2023-05-10T20:10:53.391Z,10.25
2023-05-10T20:13:21.169Z,10.01
2023-05-10T20:15:49.104Z,9.92
2023-05-10T20:18:17.116Z,9.95
2023-05-10T20:20:44.865Z,9.93
2023-05-10T20:23:12.463Z,9.87
2023-05-10T20:25:40.372Z,9.84
2023-05-10T20:28:08.594Z,9.79
2023-05-10T20:30:36.423Z,9.67
2023-05-10T20:33:04.458Z,9.66
2023-05-10T20:35:33.079Z,9.60
2023-05-10T20:38:02.210Z,9.60
2023-05-10T20:40:29.773Z,9.69
2023-05-10T20:42:57.284Z,9.66
2023-05-10T20:45:24.889Z,9.62
2023-05-10T20:47:53.574Z,9.52
2023-05-10T20:50:21.242Z,9.48
2023-05-10T20:52:51.066Z,9.41
2023-05-10T20:55:19.192Z,9.39
2023-05-10T20:57:47.200Z,9.45
2023-05-10T21:00:15.454Z,9.54
2023-05-10T21:02:45.076Z,9.48
2023-05-10T21:05:12.834Z,9.33
2023-05-10T21:07:40.953Z,9.45
2023-05-10T21:10:10.939Z,9.38
2023-05-10T21:12:38.860Z,9.33
2023-05-10T21:15:06.776Z,9.38
2023-05-10T21:17:34.860Z,9.38
2023-05-10T21:20:02.319Z,9.36
2023-05-10T21:22:30.572Z,9.40
2023-05-10T21:24:57.960Z,9.28
2023-05-10T21:27:25.352Z,9.32
2023-05-10T21:29:53.234Z,9.40
2023-05-10T21:32:20.653Z,9.28
2023-05-10T21:34:48.145Z,9.28
2023-05-10T21:37:17.449Z,9.39
2023-05-10T21:39:44.969Z,9.40
2023-05-10T21:42:12.452Z,9.25
2023-05-10T21:44:39.868Z,9.22
2023-05-10T21:47:07.276Z,9.16
2023-05-10T21:49:35.178Z,9.06
2023-05-10T21:52:02.717Z,8.97
2023-05-10T21:54:30.234Z,8.92
2023-05-10T21:56:58.156Z,8.87
2023-05-10T21:59:25.678Z,8.89
2023-05-10T22:01:53.063Z,8.94
2023-05-10T22:04:20.484Z,8.99
2023-05-10T22:06:49.138Z,8.97
2023-05-10T22:09:16.823Z,8.97
2023-05-10T22:11:44.279Z,8.99
2023-05-10T22:14:11.758Z,9.06
2023-05-10T22:16:39.145Z,9.09
2023-05-10T22:19:06.724Z,9.06
2023-05-10T22:21:34.429Z,9.01
2023-05-10T22:24:01.914Z,9.04
2023-05-10T22:26:29.451Z,8.91
2023-05-10T22:28:56.825Z,8.82
2023-05-10T22:31:24.354Z,8.87
2023-05-10T22:33:51.721Z,8.88
2023-05-10T22:36:19.074Z,8.77
2023-05-10T22:38:46.640Z,8.89
2023-05-10T22:41:14.166Z,8.84
2023-05-10T22:43:42.078Z,8.70
2023-05-10T22:46:09.510Z,8.71
2023-05-10T22:48:37.232Z,8.79
2023-05-10T22:51:04.888Z,8.81
2023-05-10T22:53:32.628Z,8.73
2023-05-10T22:56:00.032Z,8.76
2023-05-10T22:58:27.575Z,8.69
2023-05-10T23:00:55.752Z,8.70
2023-05-10T23:03:23.624Z,8.72
2023-05-10T23:05:51.198Z,8.68
2023-05-10T23:08:18.922Z,8.67
2023-05-10T23:10:47.104Z,8.76
2023-05-10T23:13:14.559Z,8.63
2023-05-10T23:15:43.632Z,8.79
2023-05-10T23:18:11.104Z,8.72
2023-05-10T23:20:38.868Z,8.80
2023-05-10T23:23:07.000Z,8.73
2023-05-10T23:25:36.028Z,8.75
2023-05-10T23:28:04.326Z,8.72
2023-05-10T23:30:31.781Z,8.66
2023-05-10T23:32:59.550Z,8.52
2023-05-10T23:35:27.071Z,8.49
2023-05-10T23:37:54.680Z,8.47
2023-05-10T23:40:22.189Z,8.55
2023-05-10T23:42:49.631Z,8.63
2023-05-10T23:45:17.152Z,8.54
2023-05-10T23:47:44.526Z,8.64
2023-05-10T23:50:12.054Z,8.53
2023-05-10T23:52:39.642Z,8.55
2023-05-10T23:55:07.653Z,8.69
2023-05-10T23:57:35.759Z,8.52
